sensor_id;sensor_type;location;lat;lon;timestamp;P1;durP1;ratioP1;P2;durP2;ratioP2
80381;SDS011;69692;55.820;37.490;2023-05-07T00:00:27;8.43;;;3.35;;
80381;SDS011;69692;55.820;37.490;2023-05-07T00:02:53;7.00;;;3.58;;
80381;SDS011;69692;55.820;37.490;2023-05-07T00:05:19;5.18;;;3.00;;
80381;SDS011;69692;55.820;37.490;2023-05-07T00:07:45;5.30;;;3.13;;
80381;SDS011;69692;55.820;37.490;2023-05-07T00:10:10;9.68;;;3.55;;
80381;SDS011;69692;55.820;37.490;2023-05-07T00:12:37;6.47;;;3.70;;
80381;SDS011;69692;55.820;37.490;2023-05-07T00:15:04;6.50;;;3.35;;
80381;SDS011;69692;55.820;37.490;2023-05-07T00:17:33;5.80;;;3.25;;
80381;SDS011;69692;55.820;37.490;2023-05-07T00:19:59;6.63;;;3.70;;
80381;SDS011;69692;55.820;37.490;2023-05-07T00:22:25;5.13;;;3.67;;
80381;SDS011;69692;55.820;37.490;2023-05-07T00:24:50;5.45;;;3.30;;
80381;SDS011;69692;55.820;37.490;2023-05-07T00:27:16;6.32;;;3.60;;
80381;SDS011;69692;55.820;37.490;2023-05-07T00:29:42;6.53;;;3.33;;
80381;SDS011;69692;55.820;37.490;2023-05-07T00:32:07;5.80;;;3.63;;
80381;SDS011;69692;55.820;37.490;2023-05-07T00:34:33;6.97;;;3.38;;
80381;SDS011;69692;55.820;37.490;2023-05-07T00:37:01;8.10;;;4.03;;
80381;SDS011;69692;55.820;37.490;2023-05-07T00:39:26;5.80;;;3.75;;
80381;SDS011;69692;55.820;37.490;2023-05-07T00:41:52;7.05;;;4.03;;
80381;SDS011;69692;55.820;37.490;2023-05-07T00:44:18;6.45;;;3.72;;
80381;SDS011;69692;55.820;37.490;2023-05-07T00:46:44;6.47;;;3.90;;
80381;SDS011;69692;55.820;37.490;2023-05-07T00:49:10;7.03;;;4.55;;
80381;SDS011;69692;55.820;37.490;2023-05-07T00:51:36;5.47;;;3.42;;
80381;SDS011;69692;55.820;37.490;2023-05-07T00:54:02;6.25;;;4.40;;
80381;SDS011;69692;55.820;37.490;2023-05-07T00:56:28;6.50;;;4.05;;
80381;SDS011;69692;55.820;37.490;2023-05-07T00:58:54;6.20;;;3.92;;
80381;SDS011;69692;55.820;37.490;2023-05-07T01:01:20;6.90;;;4.07;;
80381;SDS011;69692;55.820;37.490;2023-05-07T01:03:46;7.80;;;4.75;;
80381;SDS011;69692;55.820;37.490;2023-05-07T01:06:12;6.88;;;4.15;;
80381;SDS011;69692;55.820;37.490;2023-05-07T01:08:41;6.10;;;3.70;;
80381;SDS011;69692;55.820;37.490;2023-05-07T01:11:08;6.25;;;3.78;;
80381;SDS011;69692;55.820;37.490;2023-05-07T01:13:35;7.38;;;3.72;;
80381;SDS011;69692;55.820;37.490;2023-05-07T01:16:03;7.63;;;3.92;;
80381;SDS011;69692;55.820;37.490;2023-05-07T01:18:29;5.15;;;3.83;;
80381;SDS011;69692;55.820;37.490;2023-05-07T01:20:58;7.82;;;3.95;;
80381;SDS011;69692;55.820;37.490;2023-05-07T01:23:27;7.72;;;3.97;;
80381;SDS011;69692;55.820;37.490;2023-05-07T01:25:53;6.80;;;4.35;;
80381;SDS011;69692;55.820;37.490;2023-05-07T01:28:22;7.60;;;4.20;;
80381;SDS011;69692;55.820;37.490;2023-05-07T01:30:48;8.02;;;4.90;;
80381;SDS011;69692;55.820;37.490;2023-05-07T01:33:18;12.82;;;4.18;;
80381;SDS011;69692;55.820;37.490;2023-05-07T01:35:50;7.60;;;4.20;;
80381;SDS011;69692;55.820;37.490;2023-05-07T01:38:18;6.97;;;4.40;;
80381;SDS011;69692;55.820;37.490;2023-05-07T01:40:46;8.95;;;4.07;;
80381;SDS011;69692;55.820;37.490;2023-05-07T01:43:13;5.85;;;3.75;;
80381;SDS011;69692;55.820;37.490;2023-05-07T01:45:39;5.68;;;3.67;;
80381;SDS011;69692;55.820;37.490;2023-05-07T01:48:05;5.90;;;3.65;;
80381;SDS011;69692;55.820;37.490;2023-05-07T01:50:32;9.52;;;4.50;;
80381;SDS011;69692;55.820;37.490;2023-05-07T01:52:59;6.80;;;4.25;;
80381;SDS011;69692;55.820;37.490;2023-05-07T01:55:27;13.27;;;3.95;;
80381;SDS011;69692;55.820;37.490;2023-05-07T01:57:53;6.70;;;3.65;;
80381;SDS011;69692;55.820;37.490;2023-05-07T02:00:19;6.90;;;4.70;;
80381;SDS011;69692;55.820;37.490;2023-05-07T02:02:45;8.27;;;4.95;;
80381;SDS011;69692;55.820;37.490;2023-05-07T02:05:23;9.13;;;5.22;;
80381;SDS011;69692;55.820;37.490;2023-05-07T02:07:56;8.05;;;5.05;;
80381;SDS011;69692;55.820;37.490;2023-05-07T02:10:22;7.88;;;5.65;;
80381;SDS011;69692;55.820;37.490;2023-05-07T02:12:48;9.52;;;5.93;;
80381;SDS011;69692;55.820;37.490;2023-05-07T02:15:13;9.13;;;5.97;;
80381;SDS011;69692;55.820;37.490;2023-05-07T02:17:40;10.32;;;5.70;;
80381;SDS011;69692;55.820;37.490;2023-05-07T02:20:24;12.73;;;6.78;;
80381;SDS011;69692;55.820;37.490;2023-05-07T02:23:10;8.82;;;6.70;;
80381;SDS011;69692;55.820;37.490;2023-05-07T02:25:35;9.15;;;6.30;;
80381;SDS011;69692;55.820;37.490;2023-05-07T02:28:01;8.35;;;6.13;;
80381;SDS011;69692;55.820;37.490;2023-05-07T02:30:39;8.77;;;6.15;;
80381;SDS011;69692;55.820;37.490;2023-05-07T02:33:06;7.57;;;5.63;;
80381;SDS011;69692;55.820;37.490;2023-05-07T02:35:33;8.32;;;5.82;;
80381;SDS011;69692;55.820;37.490;2023-05-07T02:37:59;7.65;;;4.78;;
80381;SDS011;69692;55.820;37.490;2023-05-07T02:40:25;8.38;;;5.35;;
80381;SDS011;69692;55.820;37.490;2023-05-07T02:42:51;9.95;;;5.10;;
80381;SDS011;69692;55.820;37.490;2023-05-07T02:45:17;11.00;;;4.80;;
80381;SDS011;69692;55.820;37.490;2023-05-07T02:47:44;8.20;;;5.00;;
80381;SDS011;69692;55.820;37.490;2023-05-07T02:50:10;8.85;;;4.63;;
80381;SDS011;69692;55.820;37.490;2023-05-07T02:52:36;6.88;;;4.95;;
80381;SDS011;69692;55.820;37.490;2023-05-07T02:55:02;7.32;;;4.25;;
80381;SDS011;69692;55.820;37.490;2023-05-07T02:57:29;6.70;;;4.45;;
80381;SDS011;69692;55.820;37.490;2023-05-07T02:59:55;9.43;;;4.88;;
80381;SDS011;69692;55.820;37.490;2023-05-07T03:02:21;8.38;;;4.20;;
80381;SDS011;69692;55.820;37.490;2023-05-07T03:04:47;9.18;;;3.70;;
80381;SDS011;69692;55.820;37.490;2023-05-07T03:07:13;7.15;;;4.32;;
80381;SDS011;69692;55.820;37.490;2023-05-07T03:09:39;7.88;;;3.70;;
80381;SDS011;69692;55.820;37.490;2023-05-07T03:12:05;6.80;;;3.83;;
80381;SDS011;69692;55.820;37.490;2023-05-07T03:14:31;5.65;;;4.25;;
80381;SDS011;69692;55.820;37.490;2023-05-07T03:16:57;5.18;;;3.42;;
80381;SDS011;69692;55.820;37.490;2023-05-07T03:19:23;5.38;;;3.47;;
80381;SDS011;69692;55.820;37.490;2023-05-07T03:21:49;6.38;;;3.78;;
80381;SDS011;69692;55.820;37.490;2023-05-07T03:24:14;8.80;;;3.30;;
80381;SDS011;69692;55.820;37.490;2023-05-07T03:26:40;6.13;;;3.95;;
80381;SDS011;69692;55.820;37.490;2023-05-07T03:29:06;6.82;;;3.33;;
80381;SDS011;69692;55.820;37.490;2023-05-07T03:31:31;5.40;;;3.47;;
80381;SDS011;69692;55.820;37.490;2023-05-07T03:33:59;7.43;;;3.28;;
80381;SDS011;69692;55.820;37.490;2023-05-07T03:36:25;5.45;;;3.45;;
80381;SDS011;69692;55.820;37.490;2023-05-07T03:38:55;6.45;;;3.63;;
80381;SDS011;69692;55.820;37.490;2023-05-07T03:41:24;4.85;;;2.85;;
80381;SDS011;69692;55.820;37.490;2023-05-07T03:43:51;5.20;;;2.97;;
80381;SDS011;69692;55.820;37.490;2023-05-07T03:46:16;6.35;;;3.00;;
80381;SDS011;69692;55.820;37.490;2023-05-07T03:48:43;5.93;;;3.30;;
80381;SDS011;69692;55.820;37.490;2023-05-07T03:51:11;5.00;;;2.78;;
80381;SDS011;69692;55.820;37.490;2023-05-07T03:53:36;5.05;;;3.05;;
80381;SDS011;69692;55.820;37.490;2023-05-07T03:56:02;5.55;;;2.92;;
80381;SDS011;69692;55.820;37.490;2023-05-07T03:58:33;3.67;;;2.65;;
80381;SDS011;69692;55.820;37.490;2023-05-07T04:01:04;6.63;;;3.55;;
80381;SDS011;69692;55.820;37.490;2023-05-07T04:03:29;4.05;;;2.92;;
80381;SDS011;69692;55.820;37.490;2023-05-07T04:05:57;4.43;;;2.85;;
80381;SDS011;69692;55.820;37.490;2023-05-07T04:08:23;5.43;;;3.33;;
80381;SDS011;69692;55.820;37.490;2023-05-07T04:10:58;5.40;;;3.00;;
80381;SDS011;69692;55.820;37.490;2023-05-07T04:13:27;4.70;;;3.05;;
80381;SDS011;69692;55.820;37.490;2023-05-07T04:15:55;5.55;;;3.33;;
80381;SDS011;69692;55.820;37.490;2023-05-07T04:18:22;4.38;;;3.05;;
80381;SDS011;69692;55.820;37.490;2023-05-07T04:20:48;4.30;;;2.75;;
80381;SDS011;69692;55.820;37.490;2023-05-07T04:23:17;4.00;;;2.67;;
80381;SDS011;69692;55.820;37.490;2023-05-07T04:25:43;5.90;;;3.38;;
80381;SDS011;69692;55.820;37.490;2023-05-07T04:28:25;7.85;;;3.53;;
80381;SDS011;69692;55.820;37.490;2023-05-07T04:30:51;3.40;;;2.53;;
80381;SDS011;69692;55.820;37.490;2023-05-07T04:33:18;4.60;;;3.20;;
80381;SDS011;69692;55.820;37.490;2023-05-07T04:35:46;8.63;;;3.22;;
80381;SDS011;69692;55.820;37.490;2023-05-07T04:38:12;4.40;;;2.60;;
80381;SDS011;69692;55.820;37.490;2023-05-07T04:40:38;4.63;;;2.42;;
80381;SDS011;69692;55.820;37.490;2023-05-07T04:43:05;6.18;;;2.42;;
80381;SDS011;69692;55.820;37.490;2023-05-07T04:45:39;5.90;;;3.38;;
80381;SDS011;69692;55.820;37.490;2023-05-07T04:48:08;3.08;;;2.17;;
80381;SDS011;69692;55.820;37.490;2023-05-07T04:50:37;3.17;;;2.33;;
80381;SDS011;69692;55.820;37.490;2023-05-07T04:53:03;5.15;;;2.10;;
80381;SDS011;69692;55.820;37.490;2023-05-07T04:55:29;8.10;;;2.25;;
80381;SDS011;69692;55.820;37.490;2023-05-07T04:57:56;3.67;;;2.20;;
80381;SDS011;69692;55.820;37.490;2023-05-07T05:00:22;4.55;;;2.58;;
80381;SDS011;69692;55.820;37.490;2023-05-07T05:02:50;3.42;;;1.83;;
80381;SDS011;69692;55.820;37.490;2023-05-07T05:05:19;5.07;;;3.67;;
80381;SDS011;69692;55.820;37.490;2023-05-07T05:07:46;3.25;;;2.22;;
80381;SDS011;69692;55.820;37.490;2023-05-07T05:10:12;3.95;;;2.28;;
80381;SDS011;69692;55.820;37.490;2023-05-07T05:12:39;4.15;;;2.20;;
80381;SDS011;69692;55.820;37.490;2023-05-07T05:15:06;3.47;;;2.20;;
80381;SDS011;69692;55.820;37.490;2023-05-07T05:17:32;4.85;;;2.55;;
80381;SDS011;69692;55.820;37.490;2023-05-07T05:20:01;3.00;;;2.03;;
80381;SDS011;69692;55.820;37.490;2023-05-07T05:22:28;2.70;;;1.83;;
80381;SDS011;69692;55.820;37.490;2023-05-07T05:24:57;6.07;;;2.20;;
80381;SDS011;69692;55.820;37.490;2023-05-07T05:27:23;5.95;;;2.53;;
80381;SDS011;69692;55.820;37.490;2023-05-07T05:29:50;5.28;;;2.47;;
80381;SDS011;69692;55.820;37.490;2023-05-07T05:32:16;3.78;;;2.05;;
80381;SDS011;69692;55.820;37.490;2023-05-07T05:34:42;2.88;;;1.90;;
80381;SDS011;69692;55.820;37.490;2023-05-07T05:37:08;3.13;;;1.85;;
80381;SDS011;69692;55.820;37.490;2023-05-07T05:39:34;3.97;;;1.77;;
80381;SDS011;69692;55.820;37.490;2023-05-07T05:41:59;4.53;;;1.83;;
80381;SDS011;69692;55.820;37.490;2023-05-07T05:44:26;2.95;;;2.03;;
80381;SDS011;69692;55.820;37.490;2023-05-07T05:46:52;3.30;;;2.35;;
80381;SDS011;69692;55.820;37.490;2023-05-07T05:49:21;2.25;;;1.80;;
80381;SDS011;69692;55.820;37.490;2023-05-07T05:51:48;5.22;;;2.17;;
80381;SDS011;69692;55.820;37.490;2023-05-07T05:54:13;4.43;;;1.75;;
80381;SDS011;69692;55.820;37.490;2023-05-07T05:56:41;4.28;;;2.13;;
80381;SDS011;69692;55.820;37.490;2023-05-07T05:59:07;3.55;;;2.05;;
80381;SDS011;69692;55.820;37.490;2023-05-07T06:01:33;3.22;;;1.83;;
80381;SDS011;69692;55.820;37.490;2023-05-07T06:04:01;3.60;;;1.95;;
80381;SDS011;69692;55.820;37.490;2023-05-07T06:06:28;3.03;;;2.15;;
80381;SDS011;69692;55.820;37.490;2023-05-07T06:08:54;3.33;;;1.80;;
80381;SDS011;69692;55.820;37.490;2023-05-07T06:11:25;3.53;;;1.70;;
80381;SDS011;69692;55.820;37.490;2023-05-07T06:13:51;3.60;;;2.70;;
80381;SDS011;69692;55.820;37.490;2023-05-07T06:16:17;2.80;;;1.65;;
80381;SDS011;69692;55.820;37.490;2023-05-07T06:18:43;4.00;;;1.50;;
80381;SDS011;69692;55.820;37.490;2023-05-07T06:21:13;3.08;;;1.75;;
80381;SDS011;69692;55.820;37.490;2023-05-07T06:23:39;2.78;;;1.58;;
80381;SDS011;69692;55.820;37.490;2023-05-07T06:26:06;3.70;;;1.38;;
80381;SDS011;69692;55.820;37.490;2023-05-07T06:28:37;4.88;;;1.73;;
80381;SDS011;69692;55.820;37.490;2023-05-07T06:31:14;2.70;;;1.42;;
80381;SDS011;69692;55.820;37.490;2023-05-07T06:33:46;6.15;;;1.85;;
80381;SDS011;69692;55.820;37.490;2023-05-07T06:36:14;3.47;;;2.05;;
80381;SDS011;69692;55.820;37.490;2023-05-07T06:38:40;5.95;;;1.52;;
80381;SDS011;69692;55.820;37.490;2023-05-07T06:41:06;3.63;;;1.70;;
80381;SDS011;69692;55.820;37.490;2023-05-07T06:43:32;2.78;;;1.60;;
80381;SDS011;69692;55.820;37.490;2023-05-07T06:46:16;3.20;;;1.50;;
80381;SDS011;69692;55.820;37.490;2023-05-07T06:48:42;4.43;;;1.50;;
80381;SDS011;69692;55.820;37.490;2023-05-07T06:51:08;3.30;;;1.48;;
80381;SDS011;69692;55.820;37.490;2023-05-07T06:53:34;2.90;;;2.00;;
80381;SDS011;69692;55.820;37.490;2023-05-07T06:56:03;4.05;;;1.75;;
80381;SDS011;69692;55.820;37.490;2023-05-07T06:58:29;4.13;;;1.98;;
80381;SDS011;69692;55.820;37.490;2023-05-07T07:00:55;2.40;;;1.55;;
80381;SDS011;69692;55.820;37.490;2023-05-07T07:03:22;2.72;;;1.38;;
80381;SDS011;69692;55.820;37.490;2023-05-07T07:05:50;3.13;;;1.45;;
80381;SDS011;69692;55.820;37.490;2023-05-07T07:08:17;3.47;;;1.13;;
80381;SDS011;69692;55.820;37.490;2023-05-07T07:10:43;3.17;;;1.70;;
80381;SDS011;69692;55.820;37.490;2023-05-07T07:13:10;2.78;;;1.45;;
80381;SDS011;69692;55.820;37.490;2023-05-07T07:15:37;3.90;;;1.63;;
80381;SDS011;69692;55.820;37.490;2023-05-07T07:18:03;2.50;;;1.65;;
80381;SDS011;69692;55.820;37.490;2023-05-07T07:20:28;2.55;;;1.38;;
80381;SDS011;69692;55.820;37.490;2023-05-07T07:22:55;2.55;;;1.30;;
80381;SDS011;69692;55.820;37.490;2023-05-07T07:25:20;3.28;;;1.33;;
80381;SDS011;69692;55.820;37.490;2023-05-07T07:27:47;3.42;;;1.33;;
80381;SDS011;69692;55.820;37.490;2023-05-07T07:30:13;3.70;;;1.85;;
80381;SDS011;69692;55.820;37.490;2023-05-07T07:32:42;1.63;;;1.00;;
80381;SDS011;69692;55.820;37.490;2023-05-07T07:35:08;3.42;;;1.55;;
80381;SDS011;69692;55.820;37.490;2023-05-07T07:37:35;2.92;;;1.20;;
80381;SDS011;69692;55.820;37.490;2023-05-07T07:40:00;3.33;;;1.92;;
80381;SDS011;69692;55.820;37.490;2023-05-07T07:42:26;3.17;;;1.67;;
80381;SDS011;69692;55.820;37.490;2023-05-07T07:44:55;3.97;;;1.45;;
80381;SDS011;69692;55.820;37.490;2023-05-07T07:47:22;2.08;;;1.13;;
80381;SDS011;69692;55.820;37.490;2023-05-07T07:49:49;2.63;;;2.13;;
80381;SDS011;69692;55.820;37.490;2023-05-07T07:52:15;4.15;;;1.38;;
80381;SDS011;69692;55.820;37.490;2023-05-07T07:54:44;2.40;;;1.58;;
80381;SDS011;69692;55.820;37.490;2023-05-07T07:57:10;1.75;;;1.13;;
80381;SDS011;69692;55.820;37.490;2023-05-07T07:59:36;2.00;;;1.23;;
80381;SDS011;69692;55.820;37.490;2023-05-07T08:02:03;2.20;;;1.50;;
80381;SDS011;69692;55.820;37.490;2023-05-07T08:04:29;3.85;;;1.58;;
80381;SDS011;69692;55.820;37.490;2023-05-07T08:06:59;2.20;;;1.60;;
80381;SDS011;69692;55.820;37.490;2023-05-07T08:09:26;3.17;;;1.35;;
80381;SDS011;69692;55.820;37.490;2023-05-07T08:11:53;2.20;;;1.40;;
80381;SDS011;69692;55.820;37.490;2023-05-07T08:14:19;1.55;;;1.20;;
80381;SDS011;69692;55.820;37.490;2023-05-07T08:16:46;2.78;;;1.23;;
80381;SDS011;69692;55.820;37.490;2023-05-07T08:19:12;3.60;;;1.20;;
80381;SDS011;69692;55.820;37.490;2023-05-07T08:21:39;3.08;;;1.45;;
80381;SDS011;69692;55.820;37.490;2023-05-07T08:24:05;3.30;;;1.83;;
80381;SDS011;69692;55.820;37.490;2023-05-07T08:26:32;1.98;;;1.00;;
80381;SDS011;69692;55.820;37.490;2023-05-07T08:28:57;2.92;;;1.20;;
80381;SDS011;69692;55.820;37.490;2023-05-07T08:31:23;2.95;;;1.17;;
80381;SDS011;69692;55.820;37.490;2023-05-07T08:33:49;2.72;;;1.73;;
80381;SDS011;69692;55.820;37.490;2023-05-07T08:36:16;2.95;;;1.30;;
80381;SDS011;69692;55.820;37.490;2023-05-07T08:38:41;7.10;;;1.25;;
80381;SDS011;69692;55.820;37.490;2023-05-07T08:41:10;5.32;;;1.92;;
80381;SDS011;69692;55.820;37.490;2023-05-07T08:43:37;3.22;;;1.80;;
80381;SDS011;69692;55.820;37.490;2023-05-07T08:46:06;1.75;;;1.33;;
80381;SDS011;69692;55.820;37.490;2023-05-07T08:48:37;2.47;;;1.40;;
80381;SDS011;69692;55.820;37.490;2023-05-07T08:51:08;1.75;;;1.00;;
80381;SDS011;69692;55.820;37.490;2023-05-07T08:53:39;3.28;;;1.25;;
80381;SDS011;69692;55.820;37.490;2023-05-07T08:56:08;2.75;;;1.20;;
80381;SDS011;69692;55.820;37.490;2023-05-07T08:58:34;5.00;;;1.48;;
80381;SDS011;69692;55.820;37.490;2023-05-07T09:01:07;3.85;;;1.90;;
80381;SDS011;69692;55.820;37.490;2023-05-07T09:03:34;2.88;;;2.10;;
80381;SDS011;69692;55.820;37.490;2023-05-07T09:06:00;5.35;;;2.58;;
80381;SDS011;69692;55.820;37.490;2023-05-07T09:08:27;4.40;;;2.97;;
80381;SDS011;69692;55.820;37.490;2023-05-07T09:10:56;3.20;;;1.55;;
80381;SDS011;69692;55.820;37.490;2023-05-07T09:13:22;2.10;;;1.20;;
80381;SDS011;69692;55.820;37.490;2023-05-07T09:15:49;2.10;;;1.35;;
80381;SDS011;69692;55.820;37.490;2023-05-07T09:18:15;3.40;;;2.00;;
80381;SDS011;69692;55.820;37.490;2023-05-07T09:20:41;4.30;;;1.67;;
80381;SDS011;69692;55.820;37.490;2023-05-07T09:23:08;5.82;;;1.40;;
80381;SDS011;69692;55.820;37.490;2023-05-07T09:25:35;4.55;;;1.42;;
80381;SDS011;69692;55.820;37.490;2023-05-07T09:28:08;2.78;;;1.65;;
80381;SDS011;69692;55.820;37.490;2023-05-07T09:30:35;4.82;;;2.47;;
80381;SDS011;69692;55.820;37.490;2023-05-07T09:33:04;3.42;;;1.17;;
80381;SDS011;69692;55.820;37.490;2023-05-07T09:35:32;2.63;;;1.40;;
80381;SDS011;69692;55.820;37.490;2023-05-07T09:38:04;2.20;;;1.30;;
80381;SDS011;69692;55.820;37.490;2023-05-07T09:40:31;4.28;;;1.30;;
80381;SDS011;69692;55.820;37.490;2023-05-07T09:43:11;3.83;;;1.33;;
80381;SDS011;69692;55.820;37.490;2023-05-07T09:48:19;2.47;;;1.35;;
80381;SDS011;69692;55.820;37.490;2023-05-07T09:50:48;3.38;;;1.20;;
80381;SDS011;69692;55.820;37.490;2023-05-07T09:53:19;2.92;;;1.48;;
80381;SDS011;69692;55.820;37.490;2023-05-07T09:55:47;3.22;;;1.60;;
80381;SDS011;69692;55.820;37.490;2023-05-07T09:58:13;3.45;;;1.52;;
80381;SDS011;69692;55.820;37.490;2023-05-07T10:00:42;2.83;;;1.50;;
80381;SDS011;69692;55.820;37.490;2023-05-07T10:03:12;2.45;;;1.50;;
80381;SDS011;69692;55.820;37.490;2023-05-07T10:05:53;2.38;;;1.90;;
80381;SDS011;69692;55.820;37.490;2023-05-07T10:08:20;3.17;;;1.40;;
80381;SDS011;69692;55.820;37.490;2023-05-07T10:10:49;2.53;;;2.33;;
80381;SDS011;69692;55.820;37.490;2023-05-07T10:13:19;2.80;;;1.10;;
80381;SDS011;69692;55.820;37.490;2023-05-07T10:15:50;2.55;;;1.40;;
80381;SDS011;69692;55.820;37.490;2023-05-07T10:18:18;4.90;;;1.80;;
80381;SDS011;69692;55.820;37.490;2023-05-07T10:20:49;3.92;;;1.98;;
80381;SDS011;69692;55.820;37.490;2023-05-07T10:23:19;5.47;;;2.58;;
80381;SDS011;69692;55.820;37.490;2023-05-07T10:25:50;2.78;;;2.50;;
80381;SDS011;69692;55.820;37.490;2023-05-07T10:28:20;2.30;;;1.40;;
80381;SDS011;69692;55.820;37.490;2023-05-07T10:33:28;2.08;;;1.33;;
80381;SDS011;69692;55.820;37.490;2023-05-07T10:35:58;4.38;;;1.35;;
80381;SDS011;69692;55.820;37.490;2023-05-07T10:38:27;3.30;;;2.13;;
80381;SDS011;69692;55.820;37.490;2023-05-07T10:40:53;3.88;;;2.55;;
80381;SDS011;69692;55.820;37.490;2023-05-07T10:43:19;2.58;;;1.45;;
80381;SDS011;69692;55.820;37.490;2023-05-07T10:51:41;2.33;;;1.77;;
80381;SDS011;69692;55.820;37.490;2023-05-07T10:54:19;4.20;;;1.90;;
80381;SDS011;69692;55.820;37.490;2023-05-07T10:56:54;2.70;;;1.20;;
80381;SDS011;69692;55.820;37.490;2023-05-07T11:02:04;1.92;;;1.17;;
80381;SDS011;69692;55.820;37.490;2023-05-07T11:04:37;3.90;;;1.42;;
80381;SDS011;69692;55.820;37.490;2023-05-07T11:15:01;4.18;;;2.63;;
80381;SDS011;69692;55.820;37.490;2023-05-07T11:17:33;3.83;;;1.23;;
80381;SDS011;69692;55.820;37.490;2023-05-07T11:22:56;1.83;;;1.30;;
80381;SDS011;69692;55.820;37.490;2023-05-07T11:25:44;2.17;;;1.30;;
80381;SDS011;69692;55.820;37.490;2023-05-07T11:28:18;4.03;;;2.25;;
80381;SDS011;69692;55.820;37.490;2023-05-07T11:30:53;4.90;;;1.58;;
80381;SDS011;69692;55.820;37.490;2023-05-07T11:33:20;4.55;;;1.42;;
80381;SDS011;69692;55.820;37.490;2023-05-07T11:35:49;4.68;;;1.52;;
80381;SDS011;69692;55.820;37.490;2023-05-07T11:38:17;4.85;;;2.42;;
80381;SDS011;69692;55.820;37.490;2023-05-07T11:41:02;3.42;;;1.40;;
80381;SDS011;69692;55.820;37.490;2023-05-07T11:43:30;7.13;;;2.60;;
80381;SDS011;69692;55.820;37.490;2023-05-07T11:46:08;4.55;;;1.50;;
80381;SDS011;69692;55.820;37.490;2023-05-07T11:48:35;5.18;;;2.05;;
80381;SDS011;69692;55.820;37.490;2023-05-07T11:51:02;7.07;;;1.80;;
80381;SDS011;69692;55.820;37.490;2023-05-07T11:53:36;8.00;;;2.47;;
80381;SDS011;69692;55.820;37.490;2023-05-07T11:56:07;2.60;;;1.40;;
80381;SDS011;69692;55.820;37.490;2023-05-07T11:58:33;3.15;;;1.60;;
80381;SDS011;69692;55.820;37.490;2023-05-07T12:00:59;2.70;;;2.45;;
80381;SDS011;69692;55.820;37.490;2023-05-07T12:03:25;1.77;;;1.38;;
80381;SDS011;69692;55.820;37.490;2023-05-07T12:05:51;2.50;;;2.03;;
80381;SDS011;69692;55.820;37.490;2023-05-07T12:08:17;2.78;;;1.80;;
80381;SDS011;69692;55.820;37.490;2023-05-07T12:10:44;2.58;;;2.10;;
80381;SDS011;69692;55.820;37.490;2023-05-07T12:13:14;3.33;;;2.40;;
80381;SDS011;69692;55.820;37.490;2023-05-07T12:15:50;2.53;;;1.25;;
80381;SDS011;69692;55.820;37.490;2023-05-07T12:18:16;3.17;;;1.80;;
80381;SDS011;69692;55.820;37.490;2023-05-07T12:20:42;6.15;;;2.03;;
80381;SDS011;69692;55.820;37.490;2023-05-07T12:23:08;3.90;;;1.58;;
80381;SDS011;69692;55.820;37.490;2023-05-07T12:25:35;2.38;;;1.50;;
80381;SDS011;69692;55.820;37.490;2023-05-07T12:28:02;2.50;;;2.20;;
80381;SDS011;69692;55.820;37.490;2023-05-07T12:30:32;5.25;;;1.98;;
80381;SDS011;69692;55.820;37.490;2023-05-07T12:33:02;4.57;;;2.25;;
80381;SDS011;69692;55.820;37.490;2023-05-07T12:35:31;2.67;;;2.20;;
80381;SDS011;69692;55.820;37.490;2023-05-07T12:38:01;4.57;;;1.88;;
80381;SDS011;69692;55.820;37.490;2023-05-07T12:40:45;3.95;;;1.48;;
80381;SDS011;69692;55.820;37.490;2023-05-07T12:45:53;2.88;;;1.63;;
80381;SDS011;69692;55.820;37.490;2023-05-07T12:48:20;3.47;;;2.65;;
80381;SDS011;69692;55.820;37.490;2023-05-07T12:50:50;4.03;;;2.30;;
80381;SDS011;69692;55.820;37.490;2023-05-07T12:53:19;5.00;;;1.58;;
80381;SDS011;69692;55.820;37.490;2023-05-07T12:55:47;2.92;;;1.63;;
80381;SDS011;69692;55.820;37.490;2023-05-07T12:58:15;2.45;;;1.50;;
80381;SDS011;69692;55.820;37.490;2023-05-07T13:00:47;2.53;;;1.55;;
80381;SDS011;69692;55.820;37.490;2023-05-07T13:03:20;4.18;;;1.35;;
80381;SDS011;69692;55.820;37.490;2023-05-07T13:06:07;2.60;;;1.42;;
80381;SDS011;69692;55.820;37.490;2023-05-07T13:08:41;2.35;;;1.50;;
80381;SDS011;69692;55.820;37.490;2023-05-07T13:11:10;2.70;;;1.73;;
80381;SDS011;69692;55.820;37.490;2023-05-07T13:13:37;3.53;;;1.90;;
80381;SDS011;69692;55.820;37.490;2023-05-07T13:16:05;5.45;;;1.75;;
80381;SDS011;69692;55.820;37.490;2023-05-07T13:18:33;3.70;;;2.08;;
80381;SDS011;69692;55.820;37.490;2023-05-07T13:20:59;3.95;;;1.40;;
80381;SDS011;69692;55.820;37.490;2023-05-07T13:23:26;2.90;;;1.52;;
80381;SDS011;69692;55.820;37.490;2023-05-07T13:25:52;4.65;;;2.17;;
80381;SDS011;69692;55.820;37.490;2023-05-07T13:28:21;2.22;;;1.77;;
80381;SDS011;69692;55.820;37.490;2023-05-07T13:30:48;3.95;;;2.35;;
80381;SDS011;69692;55.820;37.490;2023-05-07T13:33:14;3.08;;;1.50;;
80381;SDS011;69692;55.820;37.490;2023-05-07T13:35:40;3.28;;;1.88;;
80381;SDS011;69692;55.820;37.490;2023-05-07T13:38:06;2.70;;;2.40;;
80381;SDS011;69692;55.820;37.490;2023-05-07T13:40:33;3.10;;;1.55;;
80381;SDS011;69692;55.820;37.490;2023-05-07T13:42:59;4.25;;;1.58;;
80381;SDS011;69692;55.820;37.490;2023-05-07T13:45:27;2.15;;;1.42;;
80381;SDS011;69692;55.820;37.490;2023-05-07T13:47:55;3.03;;;1.60;;
80381;SDS011;69692;55.820;37.490;2023-05-07T13:50:21;2.45;;;1.40;;
80381;SDS011;69692;55.820;37.490;2023-05-07T13:52:47;2.05;;;1.50;;
80381;SDS011;69692;55.820;37.490;2023-05-07T13:55:18;2.72;;;1.70;;
80381;SDS011;69692;55.820;37.490;2023-05-07T13:57:46;3.42;;;1.48;;
80381;SDS011;69692;55.820;37.490;2023-05-07T14:00:13;5.63;;;1.80;;
80381;SDS011;69692;55.820;37.490;2023-05-07T14:02:40;2.70;;;2.13;;
80381;SDS011;69692;55.820;37.490;2023-05-07T14:05:06;3.38;;;1.95;;
80381;SDS011;69692;55.820;37.490;2023-05-07T14:07:33;3.72;;;1.92;;
80381;SDS011;69692;55.820;37.490;2023-05-07T14:09:59;3.42;;;1.95;;
80381;SDS011;69692;55.820;37.490;2023-05-07T14:12:24;2.35;;;2.15;;
80381;SDS011;69692;55.820;37.490;2023-05-07T14:14:50;3.10;;;1.55;;
80381;SDS011;69692;55.820;37.490;2023-05-07T14:17:16;3.05;;;2.10;;
80381;SDS011;69692;55.820;37.490;2023-05-07T14:19:42;4.13;;;2.05;;
80381;SDS011;69692;55.820;37.490;2023-05-07T14:22:09;2.92;;;1.63;;
80381;SDS011;69692;55.820;37.490;2023-05-07T14:24:35;3.05;;;1.52;;
80381;SDS011;69692;55.820;37.490;2023-05-07T14:27:01;2.95;;;1.23;;
80381;SDS011;69692;55.820;37.490;2023-05-07T14:29:27;2.20;;;1.38;;
80381;SDS011;69692;55.820;37.490;2023-05-07T14:31:53;4.40;;;1.80;;
80381;SDS011;69692;55.820;37.490;2023-05-07T14:34:19;7.85;;;2.13;;
80381;SDS011;69692;55.820;37.490;2023-05-07T14:36:45;3.92;;;2.13;;
80381;SDS011;69692;55.820;37.490;2023-05-07T14:39:11;2.88;;;1.67;;
80381;SDS011;69692;55.820;37.490;2023-05-07T14:41:37;3.78;;;1.55;;
80381;SDS011;69692;55.820;37.490;2023-05-07T14:44:02;2.30;;;1.33;;
80381;SDS011;69692;55.820;37.490;2023-05-07T14:46:29;5.05;;;1.73;;
80381;SDS011;69692;55.820;37.490;2023-05-07T14:48:58;5.60;;;1.95;;
80381;SDS011;69692;55.820;37.490;2023-05-07T14:51:24;3.47;;;1.42;;
80381;SDS011;69692;55.820;37.490;2023-05-07T14:53:51;5.70;;;2.30;;
80381;SDS011;69692;55.820;37.490;2023-05-07T14:56:16;5.03;;;2.30;;
80381;SDS011;69692;55.820;37.490;2023-05-07T14:58:42;4.47;;;2.30;;
80381;SDS011;69692;55.820;37.490;2023-05-07T15:01:09;3.55;;;2.13;;
80381;SDS011;69692;55.820;37.490;2023-05-07T15:03:35;3.63;;;2.10;;